createdAt,value
2019-05-22T00:02:17.417Z,16.75
2019-05-22T00:04:53.243Z,16.48
2019-05-22T00:07:23.486Z,16.17
2019-05-22T00:09:55.043Z,17.15
2019-05-22T00:12:27.121Z,16.93
2019-05-22T00:14:57.399Z,16.85
2019-05-22T00:17:29.251Z,15.93
2019-05-22T00:20:00.430Z,15.93
2019-05-22T00:22:31.525Z,16.23
2019-05-22T00:25:02.172Z,15.83
2019-05-22T00:27:34.489Z,16.60
2019-05-22T00:30:06.044Z,17.57
2019-05-22T00:32:37.206Z,15.95
2019-05-22T00:35:08.939Z,17.20
2019-05-22T00:37:40.346Z,17.55
2019-05-22T00:40:12.069Z,17.60
2019-05-22T00:42:45.035Z,17.75
2019-05-22T00:45:15.262Z,17.37
2019-05-22T00:47:45.139Z,18.07
2019-05-22T00:50:20.818Z,17.10
2019-05-22T00:53:01.549Z,17.20
2019-05-22T00:55:57.904Z,17.42
2019-05-22T00:58:31.621Z,17.37
2019-05-22T01:01:04.833Z,17.30
2019-05-22T01:03:36.257Z,17.80
2019-05-22T01:06:06.324Z,18.02
2019-05-22T01:08:37.947Z,16.75
2019-05-22T01:11:08.363Z,18.32
2019-05-22T01:13:38.064Z,18.12
2019-05-22T01:16:10.243Z,18.62
2019-05-22T01:18:42.044Z,16.57
2019-05-22T01:21:14.403Z,17.75
2019-05-22T01:23:45.900Z,18.17
2019-05-22T01:26:19.011Z,18.05
2019-05-22T01:28:49.233Z,17.85
2019-05-22T01:31:33.056Z,17.40
2019-05-22T01:34:07.933Z,19.35
2019-05-22T01:36:44.476Z,18.10
2019-05-22T01:39:26.039Z,18.25
2019-05-22T01:41:57.338Z,17.50
2019-05-22T01:44:30.119Z,18.32
2019-05-22T01:47:03.402Z,18.35
2019-05-22T01:49:35.343Z,18.70
2019-05-22T01:52:06.539Z,19.17
2019-05-22T01:54:36.243Z,19.80
2019-05-22T01:57:05.538Z,20.12
2019-05-22T01:59:36.646Z,20.45
2019-05-22T02:02:09.532Z,19.73
2019-05-22T02:04:39.916Z,18.90
2019-05-22T02:07:10.023Z,19.80
2019-05-22T02:09:40.750Z,22.70
2019-05-22T02:12:17.538Z,20.12
2019-05-22T02:14:49.855Z,19.00
2019-05-22T02:17:22.379Z,18.17
2019-05-22T02:19:52.116Z,18.67
2019-05-22T02:22:22.263Z,19.35
2019-05-22T02:24:53.178Z,17.80
2019-05-22T02:27:24.052Z,18.75
2019-05-22T02:29:55.395Z,18.07
2019-05-22T02:32:25.608Z,18.25
2019-05-22T02:34:56.657Z,17.35
2019-05-22T02:37:27.260Z,16.55
2019-05-22T02:39:57.721Z,16.15
2019-05-22T02:42:30.786Z,16.73
2019-05-22T02:45:02.328Z,16.00
2019-05-22T02:47:32.067Z,16.85
2019-05-22T02:50:04.539Z,16.45
2019-05-22T02:52:35.905Z,15.23
2019-05-22T02:55:07.281Z,15.40
2019-05-22T02:57:37.005Z,15.75
2019-05-22T03:00:06.825Z,14.90
2019-05-22T03:02:39.038Z,15.60
2019-05-22T03:05:10.874Z,15.35
2019-05-22T03:07:40.675Z,16.20
2019-05-22T03:10:15.917Z,15.55
2019-05-22T03:12:46.107Z,15.50
2019-05-22T03:15:19.803Z,16.25
2019-05-22T03:17:51.223Z,15.00
2019-05-22T03:20:23.159Z,15.83
2019-05-22T03:23:10.935Z,13.83
2019-05-22T03:25:42.092Z,13.22
2019-05-22T03:28:12.779Z,14.03
2019-05-22T03:30:44.091Z,13.80
2019-05-22T03:33:14.608Z,13.40
2019-05-22T03:35:46.992Z,12.93
2019-05-22T03:38:18.878Z,12.90
2019-05-22T03:40:50.630Z,12.93
2019-05-22T03:43:25.016Z,13.13
2019-05-22T03:45:57.128Z,11.73
2019-05-22T03:48:28.280Z,13.48
2019-05-22T03:50:59.723Z,12.47
2019-05-22T03:53:30.503Z,13.03
2019-05-22T03:56:00.783Z,12.23
2019-05-22T03:58:30.464Z,11.12
2019-05-22T04:01:01.265Z,12.85
2019-05-22T04:03:31.635Z,11.97
2019-05-22T04:06:01.339Z,11.95
2019-05-22T04:08:32.671Z,11.12
2019-05-22T04:11:05.022Z,11.85
2019-05-22T04:13:35.981Z,12.75
2019-05-22T04:16:08.919Z,12.33
2019-05-22T04:18:39.326Z,12.33
2019-05-22T04:21:09.099Z,12.30
2019-05-22T04:23:40.057Z,11.93
2019-05-22T04:26:12.649Z,12.98
2019-05-22T04:28:49.939Z,12.88
2019-05-22T04:31:20.517Z,12.20
2019-05-22T04:33:50.530Z,12.55
2019-05-22T04:36:21.447Z,12.90
2019-05-22T04:38:52.253Z,11.93
2019-05-22T04:41:22.853Z,12.88
2019-05-22T04:43:53.475Z,12.93
2019-05-22T04:46:23.881Z,12.68
2019-05-22T04:48:53.967Z,12.28
2019-05-22T04:51:26.004Z,12.90
2019-05-22T04:53:57.037Z,12.07
2019-05-22T04:56:27.637Z,11.73
2019-05-22T04:58:58.297Z,10.72
2019-05-22T05:01:28.483Z,11.03
2019-05-22T05:03:58.812Z,10.53
2019-05-22T05:06:31.211Z,11.60
2019-05-22T05:09:01.267Z,12.20
2019-05-22T05:11:32.711Z,11.15
2019-05-22T05:14:02.795Z,11.55
2019-05-22T05:16:32.503Z,11.48
2019-05-22T05:19:02.317Z,12.45
2019-05-22T05:21:32.027Z,10.78
2019-05-22T05:24:01.839Z,11.65
2019-05-22T05:26:31.462Z,12.15
2019-05-22T05:29:02.395Z,11.80
2019-05-22T05:31:32.608Z,10.93
2019-05-22T05:34:16.562Z,11.12
2019-05-22T05:36:46.750Z,10.95
2019-05-22T05:39:37.857Z,11.10
2019-05-22T05:42:07.538Z,11.18
2019-05-22T05:44:37.555Z,11.12
2019-05-22T05:47:07.296Z,11.15
2019-05-22T05:49:37.628Z,11.05
2019-05-22T05:52:08.172Z,12.70
2019-05-22T05:54:37.903Z,12.70
2019-05-22T05:57:29.799Z,14.55
2019-05-22T05:59:59.807Z,11.75
2019-05-22T06:02:30.284Z,11.12
2019-05-22T06:05:00.044Z,10.43
2019-05-22T06:07:29.751Z,10.60
2019-05-22T06:10:23.969Z,10.45
2019-05-22T06:12:53.798Z,9.65
2019-05-22T06:15:27.215Z,10.75
2019-05-22T06:18:16.758Z,10.15
2019-05-22T06:21:02.793Z,11.43
2019-05-22T06:23:37.116Z,12.05
2019-05-22T06:26:07.764Z,13.00
2019-05-22T06:28:38.605Z,14.90
2019-05-22T06:31:13.327Z,13.22
2019-05-22T06:33:44.846Z,14.55
2019-05-22T06:36:19.085Z,14.03
2019-05-22T06:38:51.729Z,12.93
2019-05-22T06:41:24.542Z,14.33
2019-05-22T06:44:11.959Z,14.43
2019-05-22T06:46:46.404Z,14.70
2019-05-22T06:49:34.431Z,13.32
2019-05-22T06:52:05.141Z,13.72
2019-05-22T06:54:36.627Z,16.20
2019-05-22T06:57:08.557Z,16.73
2019-05-22T06:59:38.961Z,17.02
2019-05-22T07:02:10.158Z,17.42
2019-05-22T07:04:40.025Z,17.98
2019-05-22T07:07:11.668Z,18.27
2019-05-22T07:09:41.811Z,18.35
2019-05-22T07:12:13.337Z,17.67
2019-05-22T07:14:49.361Z,16.40
2019-05-22T07:17:20.951Z,16.12
2019-05-22T07:19:51.050Z,18.00
2019-05-22T07:22:21.356Z,18.82
2019-05-22T07:24:52.187Z,18.45
2019-05-22T07:27:23.963Z,18.85
2019-05-22T07:29:54.280Z,17.98
2019-05-22T07:32:24.050Z,17.90
2019-05-22T07:34:55.758Z,17.77
2019-05-22T07:37:26.350Z,18.40
2019-05-22T07:39:56.066Z,17.87
2019-05-22T07:42:26.867Z,18.87
2019-05-22T07:44:56.551Z,18.15
2019-05-22T07:47:26.616Z,20.20
2019-05-22T07:49:56.419Z,18.48
2019-05-22T07:52:26.272Z,18.75
2019-05-22T07:54:56.784Z,18.98
2019-05-22T07:57:26.615Z,18.82
2019-05-22T07:59:56.316Z,17.98
2019-05-22T08:02:28.116Z,19.23
2019-05-22T08:04:58.716Z,18.15
2019-05-22T08:07:30.475Z,19.57
2019-05-22T08:10:00.659Z,19.45
2019-05-22T08:12:33.726Z,19.07
2019-05-22T08:15:06.607Z,20.57
2019-05-22T08:17:36.701Z,19.37
2019-05-22T08:20:06.652Z,18.25
2019-05-22T08:22:38.852Z,19.92
2019-05-22T08:25:08.642Z,19.92
2019-05-22T08:27:39.058Z,17.77
2019-05-22T08:30:08.982Z,18.32
2019-05-22T08:32:39.313Z,19.57
2019-05-22T08:35:09.368Z,18.55
2019-05-22T08:37:40.790Z,18.65
2019-05-22T08:40:13.033Z,19.45
2019-05-22T08:42:42.830Z,19.10
2019-05-22T08:45:14.011Z,19.00
2019-05-22T08:47:43.990Z,19.30
2019-05-22T08:50:16.771Z,19.15
2019-05-22T08:52:48.173Z,18.45
2019-05-22T08:55:18.325Z,18.67
2019-05-22T08:57:48.115Z,19.42
2019-05-22T09:00:21.010Z,18.05
2019-05-22T09:02:50.895Z,18.00
2019-05-22T09:05:21.824Z,16.65
2019-05-22T09:07:51.854Z,16.10
2019-05-22T09:10:25.985Z,17.42
2019-05-22T09:12:54.100Z,16.02
2019-05-22T09:15:24.162Z,15.65
2019-05-22T09:17:53.906Z,14.93
2019-05-22T09:20:23.950Z,15.35
2019-05-22T09:22:54.219Z,14.47
2019-05-22T09:25:24.000Z,13.83
2019-05-22T09:27:53.919Z,12.95
2019-05-22T09:30:23.813Z,14.43
2019-05-22T09:32:54.095Z,13.93
2019-05-22T09:35:24.122Z,12.63
2019-05-22T09:37:53.827Z,13.22
2019-05-22T09:40:23.729Z,12.98
2019-05-22T09:42:53.690Z,11.97
2019-05-22T09:45:23.508Z,12.65
2019-05-22T09:47:53.470Z,12.93
2019-05-22T09:50:24.885Z,11.68
2019-05-22T09:52:57.947Z,11.78
2019-05-22T09:55:26.655Z,11.70
2019-05-22T09:57:56.352Z,11.88
2019-05-22T10:00:27.177Z,11.57
2019-05-22T10:02:56.970Z,12.15
2019-05-22T10:05:27.570Z,11.48
2019-05-22T10:08:01.540Z,13.10
2019-05-22T10:10:31.459Z,12.05
2019-05-22T10:13:01.541Z,13.80
2019-05-22T10:15:33.152Z,12.90
2019-05-22T10:18:02.829Z,13.38
2019-05-22T10:20:32.617Z,13.70
2019-05-22T10:23:14.605Z,14.58
2019-05-22T10:25:35.987Z,14.65
2019-05-22T10:28:06.730Z,15.10
2019-05-22T10:30:37.207Z,15.40
2019-05-22T10:33:06.923Z,14.43
2019-05-22T10:35:37.328Z,14.90
2019-05-22T10:38:07.320Z,13.78
2019-05-22T10:40:37.130Z,15.88
2019-05-22T10:43:07.050Z,13.72
2019-05-22T10:45:37.143Z,14.30
2019-05-22T10:48:06.850Z,15.05
2019-05-22T10:50:36.651Z,14.38
2019-05-22T10:53:06.383Z,14.20
2019-05-22T10:55:37.500Z,14.75
2019-05-22T10:58:07.310Z,15.90
2019-05-22T11:00:37.548Z,16.52
2019-05-22T11:03:07.844Z,16.55
2019-05-22T11:05:38.906Z,16.45
2019-05-22T11:08:09.450Z,14.75
2019-05-22T11:10:40.537Z,16.48
2019-05-22T11:13:11.055Z,16.73
2019-05-22T11:15:40.814Z,15.23
2019-05-22T11:18:14.911Z,16.07
2019-05-22T11:20:45.164Z,15.40
2019-05-22T11:23:14.861Z,15.50
2019-05-22T11:25:44.604Z,15.98
2019-05-22T11:28:15.377Z,16.35
2019-05-22T11:30:45.429Z,15.13
2019-05-22T11:33:15.564Z,15.05
2019-05-22T11:35:45.766Z,15.75
2019-05-22T11:38:17.200Z,15.95
2019-05-22T11:40:46.953Z,16.40
2019-05-22T11:43:17.082Z,15.38
2019-05-22T11:45:46.790Z,15.20
2019-05-22T11:48:16.517Z,14.90
2019-05-22T11:50:46.290Z,16.05
2019-05-22T11:53:16.322Z,15.60
2019-05-22T11:55:46.686Z,15.05
2019-05-22T11:58:19.154Z,14.75
2019-05-22T12:00:49.129Z,14.98
2019-05-22T12:03:18.969Z,13.38
2019-05-22T12:05:48.756Z,14.28
2019-05-22T12:08:18.597Z,14.35
2019-05-22T12:10:48.919Z,14.28
2019-05-22T12:16:42.640Z,13.32
2019-05-22T12:19:12.461Z,12.23
2019-05-22T12:21:42.789Z,14.43
2019-05-22T12:24:26.274Z,13.38
2019-05-22T12:26:44.289Z,14.03
2019-05-22T12:29:17.224Z,13.35
2019-05-22T12:31:45.955Z,12.37
2019-05-22T12:34:15.706Z,12.35
2019-05-22T12:36:45.520Z,12.23
2019-05-22T12:39:17.855Z,12.23
2019-05-22T12:41:48.052Z,12.68
2019-05-22T12:44:18.810Z,12.10
2019-05-22T12:46:48.847Z,12.28
2019-05-22T12:49:19.028Z,11.73
2019-05-22T12:51:49.631Z,12.18
2019-05-22T12:54:19.960Z,10.82
2019-05-22T12:56:49.979Z,11.40
2019-05-22T12:59:20.313Z,11.55
2019-05-22T13:01:51.912Z,11.28
2019-05-22T13:04:22.426Z,10.93
2019-05-22T13:06:52.362Z,10.38
2019-05-22T13:09:22.612Z,11.03
2019-05-22T13:11:52.396Z,10.95
2019-05-22T13:14:22.293Z,10.55
2019-05-22T13:16:52.110Z,11.33
2019-05-22T13:19:23.271Z,9.63
2019-05-22T13:21:53.862Z,10.18
2019-05-22T13:24:26.093Z,9.70
2019-05-22T13:26:56.400Z,9.90
2019-05-22T13:29:28.509Z,10.30
2019-05-22T13:31:59.561Z,10.48
2019-05-22T13:34:29.385Z,9.15
2019-05-22T13:37:00.076Z,9.45
2019-05-22T13:39:30.148Z,8.85
2019-05-22T13:42:00.019Z,8.68
2019-05-22T13:44:30.314Z,8.40
2019-05-22T13:47:00.406Z,7.92
2019-05-22T13:49:32.398Z,9.20
2019-05-22T13:52:02.497Z,8.43
2019-05-22T13:54:32.805Z,8.03
2019-05-22T13:57:02.613Z,8.95
2019-05-22T13:59:32.563Z,8.95
2019-05-22T14:02:02.302Z,9.28
2019-05-22T14:04:32.443Z,9.10
2019-05-22T14:07:03.038Z,8.85
2019-05-22T14:09:32.829Z,8.28
2019-05-22T14:12:02.547Z,8.50
2019-05-22T14:14:32.483Z,8.48
2019-05-22T14:17:02.514Z,9.25
2019-05-22T14:19:32.289Z,8.88
2019-05-22T14:22:02.040Z,9.45
2019-05-22T14:24:31.780Z,9.05
2019-05-22T14:27:01.528Z,9.08
2019-05-22T14:29:31.219Z,9.83
2019-05-22T14:32:01.267Z,9.00
2019-05-22T14:34:31.176Z,9.15
2019-05-22T14:37:01.412Z,9.55
2019-05-22T14:39:31.526Z,10.40
2019-05-22T14:42:01.310Z,9.00
2019-05-22T14:44:33.915Z,9.08
2019-05-22T14:47:13.419Z,9.40
2019-05-22T14:49:33.703Z,8.80
2019-05-22T14:52:03.476Z,9.08
2019-05-22T14:54:33.284Z,8.78
2019-05-22T14:57:04.303Z,9.30
2019-05-22T14:59:34.071Z,10.25
2019-05-22T15:02:04.105Z,9.40
2019-05-22T15:04:34.070Z,10.70
2019-05-22T15:07:04.134Z,10.93
2019-05-22T15:09:34.052Z,11.38
2019-05-22T15:12:03.802Z,12.28
2019-05-22T15:14:33.547Z,11.25
2019-05-22T15:17:03.348Z,11.83
2019-05-22T15:19:33.258Z,12.65
2019-05-22T15:22:04.834Z,12.53
2019-05-22T15:24:35.257Z,12.00
2019-05-22T15:27:05.541Z,13.00
2019-05-22T15:29:35.393Z,12.98
2019-05-22T15:32:06.403Z,12.03
2019-05-22T15:34:37.999Z,12.60
2019-05-22T15:37:09.423Z,12.98
2019-05-22T15:39:39.645Z,14.38
2019-05-22T15:42:11.814Z,13.98
2019-05-22T15:44:41.849Z,14.33
2019-05-22T15:47:11.612Z,13.65
2019-05-22T15:49:43.401Z,13.28
2019-05-22T15:52:16.074Z,13.45
2019-05-22T15:54:46.335Z,13.15
2019-05-22T15:57:17.957Z,12.68
2019-05-22T15:59:49.689Z,13.30
2019-05-22T16:02:21.919Z,14.03
2019-05-22T16:04:51.487Z,12.85
2019-05-22T16:07:21.534Z,14.13
2019-05-22T16:09:51.220Z,14.65
2019-05-22T16:12:21.023Z,14.68
2019-05-22T16:14:52.198Z,14.78
2019-05-22T16:17:23.367Z,15.88
2019-05-22T16:19:54.139Z,16.20
2019-05-22T16:22:23.844Z,15.93
2019-05-22T16:24:53.522Z,16.00
2019-05-22T16:27:23.516Z,15.15
2019-05-22T16:29:55.072Z,15.72
2019-05-22T16:32:26.359Z,15.72
2019-05-22T16:34:57.250Z,14.07
2019-05-22T16:37:26.971Z,15.10
2019-05-22T16:39:56.732Z,15.58
2019-05-22T16:42:26.762Z,16.67
2019-05-22T16:44:57.547Z,14.80
2019-05-22T16:47:27.587Z,14.18
2019-05-22T16:49:58.414Z,14.93
2019-05-22T16:52:29.129Z,16.30
2019-05-22T16:54:59.648Z,15.95
2019-05-22T16:57:30.518Z,14.85
2019-05-22T17:00:00.712Z,15.40
2019-05-22T17:02:32.116Z,15.03
2019-05-22T17:05:02.490Z,15.10
2019-05-22T17:07:33.962Z,14.47
2019-05-22T17:10:07.410Z,15.53
2019-05-22T17:12:38.510Z,15.55
2019-05-22T17:15:10.468Z,15.20
2019-05-22T17:17:40.177Z,14.50
2019-05-22T17:20:12.570Z,14.87
2019-05-22T17:22:42.954Z,14.13
2019-05-22T17:25:16.271Z,13.68
2019-05-22T17:27:49.727Z,12.93
2019-05-22T17:30:21.401Z,16.05
2019-05-22T17:32:51.906Z,14.25
2019-05-22T17:35:22.744Z,14.00
2019-05-22T17:37:52.640Z,14.20
2019-05-22T17:40:23.506Z,14.73
2019-05-22T17:42:54.686Z,14.55
2019-05-22T17:45:27.025Z,13.62
2019-05-22T17:47:56.782Z,14.95
2019-05-22T17:50:29.522Z,13.68
2019-05-22T17:53:00.015Z,13.83
2019-05-22T17:55:31.932Z,14.75
2019-05-22T17:58:01.924Z,14.33
2019-05-22T18:00:38.656Z,14.23
2019-05-22T18:03:08.772Z,15.35
2019-05-22T18:05:39.688Z,14.98
2019-05-22T18:08:10.197Z,14.50
2019-05-22T18:10:43.902Z,15.08
2019-05-22T18:13:15.237Z,15.32
2019-05-22T18:15:45.822Z,14.98
2019-05-22T18:18:15.771Z,13.35
2019-05-22T18:20:45.652Z,14.68
2019-05-22T18:23:15.608Z,22.85
2019-05-22T18:25:45.645Z,16.73
2019-05-22T18:28:15.751Z,13.65
2019-05-22T18:30:46.879Z,14.38
2019-05-22T18:33:16.976Z,15.45
2019-05-22T18:35:47.745Z,14.95
2019-05-22T18:38:17.970Z,15.05
2019-05-22T18:40:47.850Z,14.23
2019-05-22T18:43:18.978Z,14.40
2019-05-22T18:45:49.131Z,14.10
2019-05-22T18:48:20.805Z,14.18
2019-05-22T18:50:52.701Z,13.43
2019-05-22T18:53:22.679Z,15.03
2019-05-22T18:55:52.878Z,14.55
2019-05-22T18:58:22.941Z,15.60
2019-05-22T19:00:53.087Z,15.75
2019-05-22T19:03:26.919Z,15.28
2019-05-22T19:05:58.222Z,14.85
2019-05-22T19:08:28.452Z,15.00
2019-05-22T19:10:58.780Z,14.07
2019-05-22T19:13:28.615Z,15.18
2019-05-22T19:16:00.093Z,16.50
2019-05-22T19:18:30.104Z,14.58
2019-05-22T19:21:01.212Z,15.23
2019-05-22T19:23:32.188Z,16.02
2019-05-22T19:26:05.480Z,13.55
2019-05-22T19:28:43.368Z,13.32
2019-05-22T19:31:08.251Z,16.60
2019-05-22T19:33:38.239Z,17.65
2019-05-22T19:36:12.826Z,16.57
2019-05-22T19:38:44.832Z,13.93
2019-05-22T19:41:15.915Z,14.38
2019-05-22T19:43:46.098Z,15.45
2019-05-22T19:46:16.152Z,15.83
2019-05-22T19:48:48.308Z,15.40
2019-05-22T19:51:20.107Z,15.83
2019-05-22T19:53:51.316Z,16.20
2019-05-22T19:56:23.826Z,16.62
2019-05-22T19:58:54.138Z,16.85
2019-05-22T20:01:24.088Z,13.90
2019-05-22T20:03:53.852Z,16.07
2019-05-22T20:06:23.699Z,16.45
2019-05-22T20:08:54.722Z,16.27
2019-05-22T20:11:24.650Z,15.83
2019-05-22T20:13:54.570Z,14.07
2019-05-22T20:16:24.589Z,15.58
2019-05-22T20:18:54.511Z,15.20
2019-05-22T20:21:24.864Z,14.78
2019-05-22T20:23:54.689Z,16.70
2019-05-22T20:26:24.803Z,15.53
2019-05-22T20:28:54.829Z,14.60
2019-05-22T20:31:24.804Z,15.18
2019-05-22T20:33:54.947Z,15.50
2019-05-22T20:36:25.179Z,16.62
2019-05-22T20:38:54.890Z,14.75
2019-05-22T20:41:24.648Z,15.23
2019-05-22T20:43:54.727Z,15.15
2019-05-22T20:46:24.833Z,14.65
2019-05-22T20:48:54.687Z,14.35
2019-05-22T20:51:25.144Z,15.00
2019-05-22T20:53:55.807Z,14.40
2019-05-22T20:56:27.644Z,12.40
2019-05-22T20:58:58.259Z,13.98
2019-05-22T21:01:27.960Z,14.55
2019-05-22T21:03:59.895Z,14.13
2019-05-22T21:06:31.715Z,13.35
2019-05-22T21:09:02.128Z,12.10
2019-05-22T21:11:33.586Z,13.98
2019-05-22T21:14:04.471Z,12.15
2019-05-22T21:16:34.374Z,13.45
2019-05-22T21:19:04.129Z,13.62
2019-05-22T21:21:34.132Z,13.98
2019-05-22T21:24:11.371Z,13.00
2019-05-22T21:26:37.150Z,11.50
2019-05-22T21:29:08.070Z,11.65
2019-05-22T21:31:37.905Z,11.03
2019-05-22T21:34:08.525Z,13.78
2019-05-22T21:36:39.713Z,11.43
2019-05-22T21:39:11.844Z,12.93
2019-05-22T21:41:42.023Z,12.70
2019-05-22T21:44:11.744Z,10.72
2019-05-22T21:46:42.357Z,11.12
2019-05-22T21:49:12.215Z,12.63
2019-05-22T21:51:41.863Z,11.68
2019-05-22T21:54:13.186Z,10.80
2019-05-22T21:56:43.540Z,11.78
2019-05-22T21:59:14.162Z,11.20
2019-05-22T22:01:55.761Z,11.20
2019-05-22T22:04:37.243Z,10.58
2019-05-22T22:07:07.709Z,11.05
2019-05-22T22:09:38.514Z,9.53
2019-05-22T22:12:09.201Z,11.53
2019-05-22T22:14:40.585Z,11.28
2019-05-22T22:17:12.904Z,11.35
2019-05-22T22:19:42.602Z,10.53
2019-05-22T22:22:15.042Z,10.85
2019-05-22T22:24:44.738Z,10.68
2019-05-22T22:27:14.813Z,10.55
2019-05-22T22:29:44.513Z,12.45
2019-05-22T22:32:15.783Z,9.60
2019-05-22T22:34:47.271Z,10.90
2019-05-22T22:37:17.453Z,10.23
2019-05-22T22:39:51.918Z,11.18
2019-05-22T22:42:22.073Z,9.43
2019-05-22T22:44:52.578Z,11.18
2019-05-22T22:47:28.033Z,11.33
2019-05-22T22:49:58.349Z,10.43
2019-05-22T22:52:29.340Z,11.08
2019-05-22T22:54:59.017Z,9.48
2019-05-22T22:57:30.112Z,10.82
2019-05-22T22:59:59.775Z,11.10
2019-05-22T23:02:30.562Z,10.63
2019-05-22T23:05:00.293Z,10.40
2019-05-22T23:07:30.433Z,11.15
2019-05-22T23:10:01.793Z,10.82
2019-05-22T23:12:31.664Z,11.73
2019-05-22T23:15:01.708Z,11.73
2019-05-22T23:17:33.128Z,10.70
2019-05-22T23:20:03.424Z,9.90
2019-05-22T23:22:32.383Z,10.60
2019-05-22T23:25:04.197Z,11.10
2019-05-22T23:27:35.996Z,9.98
2019-05-22T23:30:06.457Z,12.07
2019-05-22T23:32:36.315Z,11.40
2019-05-22T23:35:07.543Z,11.10
2019-05-22T23:37:37.164Z,10.20
2019-05-22T23:40:08.332Z,10.23
2019-05-22T23:42:40.151Z,9.63
2019-05-22T23:45:11.931Z,10.95
2019-05-22T23:47:51.324Z,10.65
2019-05-22T23:50:21.213Z,10.08
2019-05-22T23:52:50.889Z,9.80
2019-05-22T23:55:21.108Z,11.00
2019-05-22T23:57:51.722Z,9.70
